Nearby METAR Reports

 

KMTN - Baltimore/Martin, Maryland, USA
Distance from station: SSE 8mi, 13km
Updated: Fri, 31-Jul-2015 12:42am EDT
Mist, Clear
Mist, Clear
 Wind from calm
Wind: Calm
Temperature: 75°F , 24°C
Dew Point: 75°F , 24°C
Humidity: 100%
Barometer: 29.91 inHg , 1012.9 hPa
Summary: Mist
Clouds: Clear
Visibility: 4 miles , 6 km
2015/07/31 04:42 KMTN 310442Z AUTO 00000KT 4SM BR CLR 24/24 A2991 RMK AO2
KDMH - Baltimore/Dwntwn, Maryland, USA
Distance from station: SW 12mi, 19km
Updated: Fri, 31-Jul-2015 12:54am EDT

 
Temperature: 79°F , 26°C
Dew Point: 66°F , 19°C
Humidity: 65%
Barometer: 29.90 inHg , 1012.5 hPa
2015/07/31 04:54 KDMH 310454Z AUTO 26/19 A2990 RMK AO1 SLP125 T02610194 403220244
 
KBWI - Balto/Wash Intl, Maryland, USA
Distance from station: SSW 20mi, 33km
Updated: Fri, 31-Jul-2015 12:54am EDT
Few Clouds
Few Clouds
 Wind from calm
Wind: Calm
Temperature: 73°F , 23°C
Dew Point: 72°F , 22°C
Humidity: 94%
Barometer: 29.90 inHg , 1012.5 hPa
Clouds: Few Clouds
Visibility: 10 miles , 16 km
Cloud details: Few Clouds 25000 ft
2015/07/31 04:54 KBWI 310454Z 00000KT 10SM FEW250 23/22 A2990 RMK AO2 SLP123 T02330222 403220228
KDMW - Carroll Cnty, Maryland, USA
Distance from station: WNW 30mi, 48km
Updated: Fri, 31-Jul-2015 12:40am EDT
Clear
Clear
 Wind from calm
Wind: Calm
Temperature: 72°F , 22°C
Dew Point: 64°F , 18°C
Humidity: 78%
Barometer: 29.95 inHg , 1014.2 hPa
Clouds: Clear
Visibility: 10 miles , 16 km
2015/07/31 04:40 KDMW 310440Z AUTO 00000KT 10SM CLR 22/18 A2995 RMK AO2
 
KNAK - Annapolis/Naval, Maryland, USA
Distance from station: S 30mi, 48km
Updated: Fri, 31-Jul-2015 12:54am EDT
Clear
Clear
 Wind from calm
Wind: Calm
Temperature: 75°F , 24°C
Dew Point: 72°F , 22°C
Humidity: 89%
Barometer: 29.89 inHg , 1012.2 hPa
Clouds: Clear
Visibility: 7 miles , 11 km
2015/07/31 04:54 KNAK 310454Z AUTO 00000KT 7SM CLR 24/22 A2989 RMK AO2 SLP124 T02440222 403060239
KW29 - Stevensville, Maryland, USA
Distance from station: SSE 31mi, 50km
Updated: Fri, 31-Jul-2015 12:40am EDT

 Wind from W
Wind: W 5 mph , 7 km/h
Temperature: 77°F , 25°C
Dew Point: 73°F , 23°C
Humidity: 89%
Barometer: 29.89 inHg , 1012.2 hPa
Visibility: 10 miles , 16 km
2015/07/31 04:40 KW29 310440Z AUTO 27004KT 10SM 25/23 A2989 RMK AO1
 
KCGS - College Park, Maryland, USA
Distance from station: SW 38mi, 61km
Updated: Fri, 31-Jul-2015 12:35am EDT
Clear
Clear
 Wind from calm
Wind: Calm
Temperature: 73°F , 23°C
Dew Point: 73°F , 23°C
Humidity: 100%
Barometer: 29.91 inHg , 1012.9 hPa
Clouds: Clear
Visibility: 3 miles , 5 km
2015/07/31 04:35 KCGS 310435Z AUTO 00000KT 3SM CLR 23/23 A2991 RMK AO1
KGAI - Gaithersburg, Maryland, USA
Distance from station: WSW 40mi, 65km
Updated: Fri, 31-Jul-2015 12:55am EDT
Clear
Clear
 Wind from calm
Wind: Calm
Temperature: 72°F , 22°C
Dew Point: 68°F , 20°C
Humidity: 88%
Barometer: 29.97 inHg , 1014.9 hPa
Clouds: Clear
Visibility: 7 miles , 11 km
2015/07/31 04:55 KGAI 310455Z AUTO 00000KT 7SM CLR 22/20 A2997 RMK AO1 40320 0210
 
KTHV - York, Pennsylvania, USA
Distance from station: NNW 40mi, 65km
Updated: Fri, 31-Jul-2015 12:53am EDT
Few Clouds
Few Clouds
 Wind from W
Wind: W 3 mph , 6 km/h
Temperature: 64°F , 18°C
Dew Point: 63°F , 17°C
Humidity: 94%
Barometer: 29.93 inHg , 1013.5 hPa
Clouds: Few Clouds
Visibility: 10 miles , 16 km
Cloud details: Few Clouds 7000 ft
2015/07/31 04:53 KTHV 310453Z AUTO 27003KT 10SM FEW070 18/17 A2993 RMK AO2 SLP135 T01780167 403000178
KFDK - Frederick, Maryland, USA
Distance from station: W 47mi, 75km
Updated: Fri, 31-Jul-2015 12:40am EDT
Clear
Clear
 Wind from calm
Wind: Calm
Temperature: 68°F , 20°C
Dew Point: 68°F , 20°C
Humidity: 100%
Barometer: 29.96 inHg , 1014.6 hPa
Clouds: Clear
Visibility: 10 miles , 16 km
2015/07/31 04:40 KFDK 310440Z AUTO 00000KT 10SM CLR 20/20 A2996 RMK AO2
 
KESN - Easton/Newnam, Maryland, USA
Distance from station: SSE 48mi, 78km
Updated: Fri, 31-Jul-2015 12:58am EDT
Mist, Clear
Mist, Clear
 Wind from calm
Wind: Calm
Temperature: 75°F , 24°C
Dew Point: 75°F , 24°C
Humidity: 100%
Barometer: 29.93 inHg , 1013.5 hPa
Summary: Mist
Clouds: Clear
Visibility: 5 miles , 8 km
2015/07/31 04:58 KESN 310458Z AUTO 00000KT 5SM BR CLR 24/24 A2993 RMK AO2 T02430243
KDCA - Washington/Natl, Washington D.c., USA
Distance from station: SW 49mi, 79km
Updated: Fri, 31-Jul-2015 12:52am EDT
Few Clouds
Few Clouds
 Wind from calm
Wind: Calm
Temperature: 81°F , 27°C
Heat Index: 85°F , 29°C
Dew Point: 70°F , 21°C
Humidity: 70%
Barometer: 29.91 inHg , 1012.9 hPa
Clouds: Few Clouds
Visibility: 10 miles , 16 km
Cloud details: Few Clouds 25000 ft
2015/07/31 04:52 KDCA 310452Z 00000KT 10SM FEW250 27/21 A2991 RMK AO2 SLP129 T02670211 403330256
 
KLNS - Lancaster, Pennsylvania, USA
Distance from station: N 49mi, 79km
Updated: Fri, 31-Jul-2015 12:53am EDT
Clear
Clear
 Wind from W
Wind: W 6 mph , 9 km/h
Temperature: 72°F , 22°C
Dew Point: 63°F , 17°C
Humidity: 73%
Barometer: 29.91 inHg , 1012.9 hPa
Clouds: Clear
Visibility: 10 miles , 16 km
2015/07/31 04:53 KLNS 310453Z AUTO 26005KT 10SM CLR 22/17 A2991 RMK AO2 SLP125 T02170172 402940206
KILG - Wilmington, Delaware, USA
Distance from station: ENE 50mi, 81km
Updated: Fri, 31-Jul-2015 12:51am EDT
Mist, Mostly cloudy
Mist, Mostly cloudy
 Wind from W
Wind: W 5 mph , 7 km/h
Temperature: 75°F , 24°C
Dew Point: 73°F , 23°C
Humidity: 94%
Barometer: 29.89 inHg , 1012.2 hPa
Summary: Mist
Clouds: Mostly cloudy
Visibility: 2 1/2 miles , 2 km
Cloud details: Mostly cloudy 300 ft
2015/07/31 04:51 KILG 310451Z 26004KT 2 1/2SM BR BKN003 24/23 A2989 RMK AO2 SLP120 T02390233 403220233 $